createdAt,value
2022-09-18T00:01:41.361Z,10.76
2022-09-18T00:04:14.202Z,10.73
2022-09-18T00:06:45.403Z,10.70
2022-09-18T00:09:15.083Z,10.68
2022-09-18T00:11:46.958Z,10.67
2022-09-18T00:14:19.742Z,10.66
2022-09-18T00:16:49.634Z,10.66
2022-09-18T00:19:18.503Z,10.65
2022-09-18T00:21:49.905Z,10.64
2022-09-18T00:24:19.477Z,10.64
2022-09-18T00:26:48.920Z,10.63
2022-09-18T00:29:18.237Z,10.61
2022-09-18T00:31:46.802Z,10.60
2022-09-18T00:34:16.054Z,10.59
2022-09-18T00:36:44.920Z,10.59
2022-09-18T00:39:13.433Z,10.57
2022-09-18T00:41:42.627Z,10.56
2022-09-18T00:44:31.564Z,10.54
2022-09-18T00:47:12.075Z,10.52
2022-09-18T00:49:59.803Z,10.50
2022-09-18T00:52:33.502Z,10.47
2022-09-18T00:55:07.932Z,10.45
2022-09-18T00:57:41.905Z,10.42
2022-09-18T01:00:14.706Z,10.39
2022-09-18T01:02:45.299Z,10.35
2022-09-18T01:05:17.594Z,10.32
2022-09-18T01:07:54.934Z,10.30
2022-09-18T01:10:26.162Z,10.31
2022-09-18T01:12:56.778Z,10.32
2022-09-18T01:15:48.284Z,10.30
2022-09-18T01:18:35.426Z,10.27
2022-09-18T01:21:13.307Z,10.22
2022-09-18T01:24:15.925Z,10.20
2022-09-18T01:26:51.741Z,10.20
2022-09-18T01:29:23.127Z,10.18
2022-09-18T01:32:15.859Z,10.17
2022-09-18T01:35:14.045Z,10.15
2022-09-18T01:37:55.650Z,10.13
2022-09-18T01:40:34.072Z,10.13
2022-09-18T01:43:06.640Z,10.13
2022-09-18T01:45:44.142Z,10.13
2022-09-18T01:48:34.673Z,10.12
2022-09-18T01:51:18.607Z,10.11
2022-09-18T01:54:15.880Z,10.09
2022-09-18T01:57:07.447Z,10.08
2022-09-18T01:59:43.755Z,10.07
2022-09-18T02:02:44.590Z,10.05
2022-09-18T02:05:21.578Z,10.04
2022-09-18T02:08:17.232Z,10.03
2022-09-18T02:10:56.367Z,10.00
2022-09-18T02:13:30.655Z,10.00
2022-09-18T02:16:05.454Z,9.96
2022-09-18T02:18:41.461Z,9.94
2022-09-18T02:21:14.726Z,9.94
2022-09-18T02:23:43.313Z,9.91
2022-09-18T02:26:14.878Z,9.91
2022-09-18T02:28:45.504Z,9.89
2022-09-18T02:31:14.348Z,9.86
2022-09-18T02:33:42.634Z,9.84
2022-09-18T02:36:32.675Z,9.82
2022-09-18T02:39:17.523Z,9.79
2022-09-18T02:41:54.824Z,9.77
2022-09-18T02:44:42.566Z,9.75
2022-09-18T02:47:41.544Z,9.73
2022-09-18T02:50:27.012Z,9.70
2022-09-18T02:53:05.137Z,9.66
2022-09-18T02:55:47.546Z,9.63
2022-09-18T02:58:23.078Z,9.60
2022-09-18T03:00:57.394Z,9.59
2022-09-18T03:03:30.397Z,9.58
2022-09-18T03:06:02.981Z,9.54
2022-09-18T03:08:34.192Z,9.52
2022-09-18T03:11:02.399Z,9.50
2022-09-18T03:13:31.140Z,9.48
2022-09-18T03:15:59.792Z,9.47
2022-09-18T03:18:28.373Z,9.47
2022-09-18T03:20:58.212Z,9.43
2022-09-18T03:23:26.575Z,9.40
2022-09-18T03:26:03.812Z,9.38
2022-09-18T03:28:39.141Z,9.38
2022-09-18T03:31:07.676Z,9.37
2022-09-18T03:33:36.303Z,9.35
2022-09-18T03:36:06.023Z,9.34
2022-09-18T03:38:35.926Z,9.31
2022-09-18T03:41:04.867Z,9.28
2022-09-18T03:43:34.614Z,9.27
2022-09-18T03:46:03.155Z,9.23
2022-09-18T03:48:31.478Z,9.23
2022-09-18T03:50:59.881Z,9.20
2022-09-18T03:53:28.193Z,9.19
2022-09-18T03:56:22.566Z,9.17
2022-09-18T03:59:26.346Z,9.16
2022-09-18T04:02:06.645Z,9.17
2022-09-18T04:04:47.225Z,9.16
2022-09-18T04:07:18.585Z,9.15
2022-09-18T04:10:12.782Z,9.13
2022-09-18T04:12:44.057Z,9.12
2022-09-18T04:15:27.821Z,9.12
2022-09-18T04:17:56.152Z,9.10
2022-09-18T04:20:24.385Z,9.08
2022-09-18T04:22:52.717Z,9.07
2022-09-18T04:25:21.208Z,9.07
2022-09-18T04:27:49.619Z,9.06
2022-09-18T04:30:19.195Z,9.06
2022-09-18T04:32:50.339Z,9.07
2022-09-18T04:35:19.913Z,9.07
2022-09-18T04:37:48.154Z,9.08
2022-09-18T04:40:16.542Z,9.09
2022-09-18T04:42:44.774Z,9.08
2022-09-18T04:45:13.158Z,9.07
2022-09-18T04:47:41.594Z,9.08
2022-09-18T04:50:11.105Z,9.07
2022-09-18T04:52:59.302Z,9.07
2022-09-18T04:55:28.575Z,9.05
2022-09-18T04:57:57.351Z,9.04
2022-09-18T05:00:25.974Z,9.03
2022-09-18T05:02:54.467Z,9.04
2022-09-18T05:05:25.051Z,9.03
2022-09-18T05:07:53.751Z,9.05
2022-09-18T05:10:23.128Z,9.07
2022-09-18T05:12:52.632Z,9.07
2022-09-18T05:15:22.158Z,9.08
2022-09-18T05:18:07.764Z,9.10
2022-09-18T05:20:39.595Z,9.11
2022-09-18T05:23:09.368Z,9.10
2022-09-18T05:25:38.189Z,9.12
2022-09-18T05:28:06.927Z,9.13
2022-09-18T05:30:40.962Z,9.16
2022-09-18T05:33:11.523Z,9.18
2022-09-18T05:35:42.414Z,9.22
2022-09-18T05:38:12.141Z,9.23
2022-09-18T05:40:44.606Z,9.24
2022-09-18T05:43:12.907Z,9.27
2022-09-18T05:45:41.304Z,9.30
2022-09-18T05:48:17.387Z,9.35
2022-09-18T05:50:46.269Z,9.37
2022-09-18T05:53:19.415Z,9.39
2022-09-18T05:56:00.951Z,9.44
2022-09-18T05:58:29.293Z,9.47
2022-09-18T06:00:59.587Z,9.52
2022-09-18T06:03:31.009Z,9.56
2022-09-18T06:06:00.870Z,9.59
2022-09-18T06:08:29.175Z,9.57
2022-09-18T06:11:01.490Z,9.59
2022-09-18T06:13:29.953Z,9.60
2022-09-18T06:15:58.515Z,9.59
2022-09-18T06:18:36.846Z,9.62
2022-09-18T06:21:05.756Z,9.63
2022-09-18T06:23:33.997Z,9.66
2022-09-18T06:26:14.791Z,9.69
2022-09-18T06:28:44.302Z,9.75
2022-09-18T06:31:12.685Z,9.79
2022-09-18T06:34:06.526Z,9.83
2022-09-18T06:36:34.822Z,9.91
2022-09-18T06:39:17.354Z,10.01
2022-09-18T06:41:47.157Z,10.08
2022-09-18T06:44:21.939Z,10.18
2022-09-18T06:47:00.332Z,10.28
2022-09-18T06:49:31.394Z,10.38
2022-09-18T06:51:59.722Z,10.43
2022-09-18T06:54:28.324Z,10.48
2022-09-18T06:56:56.729Z,10.49
2022-09-18T06:59:25.122Z,10.55
2022-09-18T07:01:53.556Z,10.61
2022-09-18T07:04:30.160Z,10.62
2022-09-18T07:06:59.213Z,10.63
2022-09-18T07:09:29.086Z,10.66
2022-09-18T07:12:03.067Z,10.77
2022-09-18T07:14:41.811Z,10.88
2022-09-18T07:17:17.885Z,10.95
2022-09-18T07:19:47.929Z,11.04
2022-09-18T07:22:17.647Z,11.12
2022-09-18T07:24:48.262Z,11.16
2022-09-18T07:27:16.506Z,11.20
2022-09-18T07:29:44.861Z,11.27
2022-09-18T07:32:15.796Z,11.31
2022-09-18T07:34:46.350Z,11.37
2022-09-18T07:37:19.445Z,11.39
2022-09-18T07:39:53.583Z,11.42
2022-09-18T07:42:40.290Z,11.40
2022-09-18T07:45:09.130Z,11.37
2022-09-18T07:47:37.752Z,11.37
2022-09-18T07:50:09.204Z,11.33
2022-09-18T07:52:37.433Z,11.29
2022-09-18T07:55:06.465Z,11.25
2022-09-18T07:57:36.091Z,11.19
2022-09-18T08:00:30.505Z,11.15
2022-09-18T08:03:08.933Z,11.19
2022-09-18T08:06:01.468Z,11.24
2022-09-18T08:08:30.438Z,11.26
2022-09-18T08:11:24.858Z,11.25
2022-09-18T08:14:16.451Z,11.28
2022-09-18T08:17:05.081Z,11.27
2022-09-18T08:19:48.147Z,11.19
2022-09-18T08:22:32.230Z,11.15
2022-09-18T08:25:00.450Z,11.17
2022-09-18T08:27:28.989Z,11.18
2022-09-18T08:29:58.367Z,11.19
2022-09-18T08:32:26.787Z,11.17
2022-09-18T08:34:57.443Z,11.14
2022-09-18T08:37:26.327Z,11.12
2022-09-18T08:40:19.180Z,11.11
2022-09-18T08:43:14.699Z,11.06
2022-09-18T08:46:17.404Z,10.98
2022-09-18T08:49:27.059Z,10.95
2022-09-18T08:52:04.507Z,10.94
2022-09-18T08:54:59.873Z,10.93
2022-09-18T08:57:55.554Z,10.95
2022-09-18T09:00:54.369Z,10.99
2022-09-18T09:03:25.173Z,11.03
2022-09-18T09:06:29.883Z,11.01
2022-09-18T09:08:59.120Z,11.00
2022-09-18T09:12:00.103Z,11.02
2022-09-18T09:14:55.708Z,11.01
2022-09-18T09:17:51.468Z,11.04
2022-09-18T09:20:30.460Z,11.07
2022-09-18T09:23:14.582Z,11.10
2022-09-18T09:26:02.127Z,11.18
2022-09-18T09:29:01.749Z,11.33
2022-09-18T09:31:56.177Z,11.60
2022-09-18T09:35:05.913Z,11.88
2022-09-18T09:37:45.696Z,12.15
2022-09-18T09:40:32.722Z,12.32
2022-09-18T09:43:11.874Z,12.43
2022-09-18T09:45:50.213Z,12.60
2022-09-18T09:49:00.924Z,12.65
2022-09-18T09:51:51.463Z,12.60
2022-09-18T09:54:20.623Z,12.49
2022-09-18T09:57:12.574Z,12.52
2022-09-18T09:59:52.726Z,12.59
2022-09-18T10:02:35.208Z,12.64
2022-09-18T10:05:16.086Z,12.66
2022-09-18T10:07:53.050Z,12.65
2022-09-18T10:10:43.070Z,12.54
2022-09-18T10:13:14.571Z,12.54
2022-09-18T10:15:49.292Z,12.63
2022-09-18T10:18:26.031Z,12.71
2022-09-18T10:21:02.150Z,12.87
2022-09-18T10:23:40.358Z,13.11
2022-09-18T10:26:26.085Z,13.17
2022-09-18T10:28:54.580Z,13.37
2022-09-18T10:31:23.362Z,13.74
2022-09-18T10:33:55.820Z,13.89
2022-09-18T10:36:36.510Z,14.04
2022-09-18T10:39:19.070Z,14.07
2022-09-18T10:41:50.496Z,14.02
2022-09-18T10:44:22.808Z,14.06
2022-09-18T10:47:09.837Z,14.16
2022-09-18T10:49:50.653Z,14.18
2022-09-18T10:52:40.326Z,14.11
2022-09-18T10:55:29.368Z,14.03
2022-09-18T10:58:03.848Z,14.18
2022-09-18T11:00:39.074Z,14.37
2022-09-18T11:04:05.405Z,14.31
2022-09-18T11:06:38.215Z,13.91
2022-09-18T11:09:40.793Z,13.58
2022-09-18T11:12:35.319Z,13.37
2022-09-18T11:15:10.005Z,13.19
2022-09-18T11:17:47.899Z,13.13
2022-09-18T11:20:25.214Z,13.16
2022-09-18T11:23:21.389Z,13.24
2022-09-18T11:26:29.464Z,13.28
2022-09-18T11:29:45.942Z,13.34
2022-09-18T11:32:44.267Z,13.34
2022-09-18T11:35:38.277Z,13.21
2022-09-18T11:38:16.908Z,13.06
2022-09-18T11:40:52.175Z,12.85
2022-09-18T11:43:30.973Z,12.69
2022-09-18T11:46:47.468Z,12.93
2022-09-18T11:49:29.131Z,13.53
2022-09-18T11:52:03.657Z,13.82
2022-09-18T11:54:46.976Z,14.35
2022-09-18T11:57:45.099Z,14.80
2022-09-18T12:00:21.287Z,15.29
2022-09-18T12:03:16.471Z,15.50
2022-09-18T12:05:52.395Z,15.46
2022-09-18T12:08:33.742Z,15.15
2022-09-18T12:11:31.955Z,14.50
2022-09-18T12:14:18.705Z,13.79
2022-09-18T12:17:08.329Z,13.25
2022-09-18T12:19:48.557Z,12.93
2022-09-18T12:22:56.800Z,12.61
2022-09-18T12:25:47.621Z,12.37
2022-09-18T12:28:32.022Z,12.18
2022-09-18T12:31:45.026Z,12.02
2022-09-18T12:34:13.317Z,11.86
2022-09-18T12:36:41.457Z,11.75
2022-09-18T12:39:30.412Z,11.65
2022-09-18T12:42:53.132Z,11.58
2022-09-18T12:45:42.500Z,11.58
2022-09-18T12:48:24.414Z,11.61
2022-09-18T12:51:21.144Z,11.65
2022-09-18T12:54:24.419Z,11.71
2022-09-18T12:57:12.499Z,12.07
2022-09-18T13:00:11.865Z,12.51
2022-09-18T13:02:51.639Z,12.71
2022-09-18T13:05:54.405Z,12.74
2022-09-18T13:08:47.057Z,12.58
2022-09-18T13:11:38.470Z,12.35
2022-09-18T13:14:17.297Z,12.13
2022-09-18T13:17:01.698Z,12.01
2022-09-18T13:19:35.500Z,11.90
2022-09-18T13:22:11.610Z,11.91
2022-09-18T13:24:42.378Z,12.16
2022-09-18T13:27:16.278Z,12.47
2022-09-18T13:29:54.153Z,12.70
2022-09-18T13:32:37.116Z,12.84
2022-09-18T13:35:23.653Z,12.88
2022-09-18T13:38:05.126Z,12.87
2022-09-18T13:40:44.738Z,12.80
2022-09-18T13:43:28.251Z,12.72
2022-09-18T13:46:00.867Z,12.57
2022-09-18T13:48:41.049Z,12.38
2022-09-18T13:51:29.560Z,12.23
2022-09-18T13:54:16.110Z,12.10
2022-09-18T13:57:03.138Z,12.01
2022-09-18T13:59:48.391Z,11.91
2022-09-18T14:02:50.075Z,11.82
2022-09-18T14:05:36.655Z,11.79
2022-09-18T14:08:10.138Z,11.75
2022-09-18T14:11:14.643Z,11.73
2022-09-18T14:13:51.517Z,11.68
2022-09-18T14:16:24.056Z,11.64
2022-09-18T14:19:00.955Z,11.64
2022-09-18T14:21:40.002Z,11.62
2022-09-18T14:24:37.717Z,11.63
2022-09-18T14:27:29.982Z,11.62
2022-09-18T14:30:02.279Z,11.62
2022-09-18T14:32:31.215Z,11.65
2022-09-18T14:35:38.705Z,11.64
2022-09-18T14:38:27.661Z,11.61
2022-09-18T14:41:21.977Z,11.60
2022-09-18T14:43:56.056Z,11.60
2022-09-18T14:46:25.453Z,11.61
2022-09-18T14:48:55.411Z,11.60
2022-09-18T14:51:29.666Z,11.57
2022-09-18T14:54:00.013Z,11.53
2022-09-18T14:56:37.559Z,11.47
2022-09-18T14:59:08.870Z,11.39
2022-09-18T15:01:38.992Z,11.33
2022-09-18T15:04:13.948Z,11.28
2022-09-18T15:06:49.756Z,11.19
2022-09-18T15:09:26.482Z,11.14
2022-09-18T15:12:04.087Z,11.07
2022-09-18T15:14:43.951Z,11.01
2022-09-18T15:17:24.263Z,10.92
2022-09-18T15:20:00.297Z,10.82
2022-09-18T15:22:30.331Z,10.72
2022-09-18T15:25:02.031Z,10.67
2022-09-18T15:27:31.719Z,10.62
2022-09-18T15:30:08.464Z,10.63
2022-09-18T15:32:42.487Z,10.60
2022-09-18T15:35:20.282Z,10.58
2022-09-18T15:37:52.929Z,10.55
2022-09-18T15:40:28.214Z,10.50
2022-09-18T15:43:05.612Z,10.44
2022-09-18T15:45:37.142Z,10.37
2022-09-18T15:48:40.177Z,10.31
2022-09-18T15:51:18.791Z,10.27
2022-09-18T15:54:06.276Z,10.23
2022-09-18T15:56:35.945Z,10.21
2022-09-18T15:59:08.374Z,10.17
2022-09-18T16:01:40.170Z,10.13
2022-09-18T16:04:23.997Z,10.11
2022-09-18T16:06:57.246Z,10.08
2022-09-18T16:09:42.836Z,10.05
2022-09-18T16:12:26.514Z,10.00
2022-09-18T16:15:16.761Z,9.97
2022-09-18T16:17:44.969Z,9.93
2022-09-18T16:21:01.866Z,9.90
2022-09-18T16:23:48.036Z,9.86
2022-09-18T16:26:19.376Z,9.85
2022-09-18T16:28:50.549Z,9.85
2022-09-18T16:31:24.000Z,9.85
2022-09-18T16:34:01.733Z,9.84
2022-09-18T16:36:39.655Z,9.84
2022-09-18T16:39:11.997Z,9.82
2022-09-18T16:41:42.011Z,9.81
2022-09-18T16:44:12.170Z,9.79
2022-09-18T16:46:51.150Z,9.78
2022-09-18T16:49:24.200Z,9.77
2022-09-18T16:51:55.380Z,9.75
2022-09-18T16:54:25.357Z,9.75
2022-09-18T16:57:00.669Z,9.72
2022-09-18T16:59:31.242Z,9.70
2022-09-18T17:02:04.652Z,9.68
2022-09-18T17:04:34.966Z,9.67
2022-09-18T17:07:03.893Z,9.66
2022-09-18T17:09:32.862Z,9.65
2022-09-18T17:12:01.264Z,9.63
2022-09-18T17:14:29.616Z,9.61
2022-09-18T17:16:57.997Z,9.59
2022-09-18T17:19:26.956Z,9.57
2022-09-18T17:21:55.187Z,9.55
2022-09-18T17:24:26.518Z,9.53
2022-09-18T17:26:55.042Z,9.49
2022-09-18T17:29:23.257Z,9.46
2022-09-18T17:31:52.508Z,9.40
2022-09-18T17:34:22.291Z,9.36
2022-09-18T17:36:50.592Z,9.32
2022-09-18T17:39:18.840Z,9.28
2022-09-18T17:41:47.162Z,9.21
2022-09-18T17:44:15.933Z,9.18
2022-09-18T17:46:44.652Z,9.16
2022-09-18T17:49:13.097Z,9.13
2022-09-18T17:51:45.410Z,9.12
2022-09-18T17:54:13.783Z,9.11
2022-09-18T17:56:41.987Z,9.12
2022-09-18T17:59:11.546Z,9.12
2022-09-18T18:01:46.313Z,9.13
2022-09-18T18:04:15.118Z,9.13
2022-09-18T18:06:46.694Z,9.13
2022-09-18T18:09:16.279Z,9.15
2022-09-18T18:11:46.223Z,9.16
2022-09-18T18:14:14.881Z,9.16
2022-09-18T18:16:43.167Z,9.17
2022-09-18T18:19:13.106Z,9.19
2022-09-18T18:21:46.183Z,9.21
2022-09-18T18:24:18.537Z,9.21
2022-09-18T18:26:48.154Z,9.21
2022-09-18T18:29:19.251Z,9.20
2022-09-18T18:31:51.783Z,9.17
2022-09-18T18:34:25.557Z,9.16
2022-09-18T18:36:53.810Z,9.13
2022-09-18T18:39:22.063Z,9.10
2022-09-18T18:41:50.544Z,9.09
2022-09-18T18:44:21.723Z,9.06
2022-09-18T18:46:51.303Z,9.04
2022-09-18T18:49:20.910Z,9.01
2022-09-18T18:51:49.317Z,8.98
2022-09-18T18:54:23.369Z,8.93
2022-09-18T18:56:53.259Z,8.90
2022-09-18T18:59:25.757Z,8.86
2022-09-18T19:01:59.806Z,8.83
2022-09-18T19:04:29.062Z,8.80
2022-09-18T19:06:57.708Z,8.76
2022-09-18T19:09:28.797Z,8.73
2022-09-18T19:11:57.996Z,8.70
2022-09-18T19:14:31.978Z,8.66
2022-09-18T19:17:01.005Z,8.62
2022-09-18T19:19:30.061Z,8.58
2022-09-18T19:22:00.035Z,8.54
2022-09-18T19:24:30.209Z,8.51
2022-09-18T19:26:59.268Z,8.48
2022-09-18T19:29:28.187Z,8.45
2022-09-18T19:31:57.899Z,8.43
2022-09-18T19:34:27.290Z,8.40
2022-09-18T19:36:59.553Z,8.39
2022-09-18T19:39:28.324Z,8.38
2022-09-18T19:42:17.666Z,8.35
2022-09-18T19:44:51.444Z,8.33
2022-09-18T19:47:34.541Z,8.30
2022-09-18T19:50:05.704Z,8.29
2022-09-18T19:52:35.349Z,8.29
2022-09-18T19:55:05.139Z,8.31
2022-09-18T19:57:33.510Z,8.32
2022-09-18T20:00:04.013Z,8.33
2022-09-18T20:02:41.223Z,8.36
2022-09-18T20:05:10.800Z,8.38
2022-09-18T20:07:40.639Z,8.41
2022-09-18T20:10:12.223Z,8.43
2022-09-18T20:12:42.138Z,8.46
2022-09-18T20:15:11.613Z,8.49
2022-09-18T20:17:40.008Z,8.53
2022-09-18T20:20:10.202Z,8.55
2022-09-18T20:22:40.892Z,8.58
2022-09-18T20:25:10.659Z,8.58
2022-09-18T20:27:41.821Z,8.59
2022-09-18T20:30:15.133Z,8.57
2022-09-18T20:32:43.322Z,8.54
2022-09-18T20:35:11.777Z,8.52
2022-09-18T20:37:40.450Z,8.48
2022-09-18T20:40:12.756Z,8.44
2022-09-18T20:42:42.059Z,8.40
2022-09-18T20:45:10.318Z,8.36
2022-09-18T20:47:38.615Z,8.32
2022-09-18T20:50:10.300Z,8.27
2022-09-18T20:52:43.211Z,8.24
2022-09-18T20:55:17.492Z,8.21
2022-09-18T20:57:46.488Z,8.18
2022-09-18T21:00:16.396Z,8.14
2022-09-18T21:02:50.855Z,8.11
2022-09-18T21:05:20.220Z,8.08
2022-09-18T21:07:49.007Z,8.05
2022-09-18T21:10:17.407Z,8.01
2022-09-18T21:12:45.645Z,7.97
2022-09-18T21:15:15.556Z,7.94
2022-09-18T21:17:43.801Z,7.91
2022-09-18T21:20:13.454Z,7.90
2022-09-18T21:23:04.870Z,7.88
2022-09-18T21:25:33.969Z,7.88
2022-09-18T21:28:06.150Z,7.87
2022-09-18T21:30:34.814Z,7.85
2022-09-18T21:33:03.098Z,7.83
2022-09-18T21:35:31.320Z,7.82
2022-09-18T21:37:59.566Z,7.82
2022-09-18T21:40:28.729Z,7.81
2022-09-18T21:42:57.003Z,7.79
2022-09-18T21:45:26.210Z,7.78
2022-09-18T21:47:54.434Z,7.77
2022-09-18T21:50:22.895Z,7.76
2022-09-18T21:52:51.257Z,7.74
2022-09-18T21:55:20.861Z,7.72
2022-09-18T21:57:49.033Z,7.68
2022-09-18T22:00:17.355Z,7.66
2022-09-18T22:02:45.542Z,7.63
2022-09-18T22:05:14.833Z,7.61
2022-09-18T22:07:44.601Z,7.59
2022-09-18T22:10:14.923Z,7.57
2022-09-18T22:12:43.216Z,7.54
2022-09-18T22:15:12.539Z,7.50
2022-09-18T22:17:40.741Z,7.47
2022-09-18T22:20:09.502Z,7.43
2022-09-18T22:22:38.441Z,7.38
2022-09-18T22:25:07.383Z,7.34
2022-09-18T22:27:35.669Z,7.29
2022-09-18T22:30:04.635Z,7.26
2022-09-18T22:32:32.837Z,7.25
2022-09-18T22:35:01.170Z,7.24
2022-09-18T22:37:31.463Z,7.22
2022-09-18T22:39:59.743Z,7.22
2022-09-18T22:42:28.068Z,7.22
2022-09-18T22:44:56.218Z,7.22
2022-09-18T22:47:24.425Z,7.24
2022-09-18T22:49:52.799Z,7.26
2022-09-18T22:52:21.057Z,7.28
2022-09-18T22:54:49.309Z,7.30
2022-09-18T22:57:17.665Z,7.31
2022-09-18T22:59:45.891Z,7.32
2022-09-18T23:02:14.101Z,7.32
2022-09-18T23:04:42.922Z,7.32
2022-09-18T23:07:11.201Z,7.32
2022-09-18T23:09:40.586Z,7.31
2022-09-18T23:12:08.828Z,7.29
2022-09-18T23:14:37.040Z,7.26
2022-09-18T23:17:05.311Z,7.24
2022-09-18T23:19:34.745Z,7.24
2022-09-18T23:22:03.004Z,7.24
2022-09-18T23:24:32.078Z,7.26
2022-09-18T23:27:00.511Z,7.27
2022-09-18T23:29:32.037Z,7.31
2022-09-18T23:32:00.584Z,7.34
2022-09-18T23:34:31.793Z,7.39
2022-09-18T23:37:01.497Z,7.42
2022-09-18T23:39:34.053Z,7.46
2022-09-18T23:42:05.816Z,7.49
2022-09-18T23:44:34.873Z,7.52
2022-09-18T23:47:03.751Z,7.55
2022-09-18T23:49:32.176Z,7.58
2022-09-18T23:52:01.789Z,7.60
2022-09-18T23:54:32.201Z,7.61
2022-09-18T23:57:00.599Z,7.62
2022-09-18T23:59:28.866Z,7.64
